createdAt,value
2019-04-14T00:01:32.610Z,12.00
2019-04-14T00:04:22.484Z,11.90
2019-04-14T00:06:52.606Z,11.90
2019-04-14T00:09:22.869Z,11.80
2019-04-14T00:11:52.824Z,11.80
2019-04-14T00:14:22.923Z,11.80
2019-04-14T00:16:53.204Z,11.70
2019-04-14T00:19:23.863Z,11.70
2019-04-14T00:21:54.408Z,11.70
2019-04-14T00:24:24.909Z,11.70
2019-04-14T00:26:55.209Z,11.70
2019-04-14T00:29:26.253Z,11.70
2019-04-14T00:31:56.985Z,11.70
2019-04-14T00:34:36.112Z,11.60
2019-04-14T00:37:16.251Z,11.60
2019-04-14T00:39:51.131Z,11.60
2019-04-14T00:42:51.975Z,11.60
2019-04-14T00:45:39.380Z,11.50
2019-04-14T00:48:09.613Z,11.60
2019-04-14T00:50:36.612Z,11.50
2019-04-14T00:53:07.649Z,11.40
2019-04-14T00:55:37.960Z,11.40
2019-04-14T00:58:08.135Z,11.30
2019-04-14T01:00:38.674Z,11.20
2019-04-14T01:03:09.135Z,11.30
2019-04-14T01:05:39.353Z,11.20
2019-04-14T01:08:09.645Z,11.20
2019-04-14T01:10:39.488Z,11.20
2019-04-14T01:13:11.137Z,11.20
2019-04-14T01:15:51.298Z,11.20
2019-04-14T01:18:12.549Z,11.30
2019-04-14T01:20:47.093Z,11.20
2019-04-14T01:23:17.160Z,11.20
2019-04-14T01:25:47.689Z,11.10
2019-04-14T01:28:17.929Z,11.10
2019-04-14T01:31:07.646Z,11.10
2019-04-14T01:33:37.932Z,11.10
2019-04-14T01:36:08.104Z,11.00
2019-04-14T01:38:38.508Z,11.10
2019-04-14T01:41:08.537Z,11.10
2019-04-14T01:43:38.577Z,11.10
2019-04-14T01:46:15.795Z,11.10
2019-04-14T01:48:41.013Z,11.10
2019-04-14T01:51:35.556Z,11.10
2019-04-14T01:54:40.979Z,11.20
2019-04-14T01:57:30.734Z,11.20
2019-04-14T02:00:20.638Z,11.10
2019-04-14T02:02:50.958Z,11.00
2019-04-14T02:05:21.413Z,10.80
2019-04-14T02:07:51.618Z,10.80
2019-04-14T02:10:21.696Z,10.80
2019-04-14T02:12:51.804Z,10.90
2019-04-14T02:15:22.287Z,10.90
2019-04-14T02:17:52.445Z,10.90
2019-04-14T02:20:22.951Z,11.00
2019-04-14T02:22:53.179Z,11.10
2019-04-14T02:25:23.126Z,11.20
2019-04-14T02:27:53.668Z,11.10
2019-04-14T02:30:28.425Z,11.10
2019-04-14T02:33:26.615Z,11.20
2019-04-14T02:35:59.712Z,11.30
2019-04-14T02:43:29.967Z,11.10
2019-04-14T02:45:57.820Z,11.10
2019-04-14T02:51:05.774Z,11.20
2019-04-14T02:53:45.938Z,11.20
2019-04-14T02:56:11.931Z,11.10
2019-04-14T02:58:48.389Z,11.00
2019-04-14T03:03:39.203Z,11.10
2019-04-14T03:06:10.303Z,11.10
2019-04-14T03:08:48.553Z,10.90
2019-04-14T03:11:09.602Z,10.80
2019-04-14T03:13:45.881Z,10.70
2019-04-14T03:19:14.360Z,10.50
2019-04-14T03:22:12.319Z,10.60
2019-04-14T03:24:46.609Z,10.60
2019-04-14T03:27:48.117Z,10.70
2019-04-14T03:30:45.820Z,10.80
2019-04-14T03:33:20.419Z,10.80
2019-04-14T03:35:51.028Z,10.70
2019-04-14T03:38:14.628Z,10.80
2019-04-14T03:40:28.458Z,10.90
2019-04-14T03:43:04.012Z,10.90
2019-04-14T03:45:37.794Z,10.80
2019-04-14T03:53:22.041Z,10.40
2019-04-14T03:55:27.352Z,10.40
2019-04-14T03:57:43.371Z,10.40
2019-04-14T04:00:13.880Z,10.50
2019-04-14T04:02:44.447Z,10.60
2019-04-14T04:05:15.165Z,10.60
2019-04-14T04:07:45.384Z,10.70
2019-04-14T04:10:18.359Z,10.80
2019-04-14T04:12:48.693Z,10.80
2019-04-14T04:15:19.257Z,10.90
2019-04-14T04:18:00.434Z,10.90
2019-04-14T04:20:47.710Z,10.80
2019-04-14T04:23:33.483Z,10.80
2019-04-14T04:26:40.736Z,10.70
2019-04-14T04:29:20.193Z,10.70
2019-04-14T04:32:03.552Z,10.70
2019-04-14T04:34:53.347Z,10.50
2019-04-14T04:37:34.412Z,10.50
2019-04-14T04:40:09.386Z,10.50
2019-04-14T04:42:39.481Z,10.60
2019-04-14T04:45:10.390Z,10.60
2019-04-14T04:47:40.515Z,10.60
2019-04-14T04:50:10.775Z,10.60
2019-04-14T04:52:40.766Z,10.60
2019-04-14T04:55:11.254Z,10.60
2019-04-14T04:57:41.603Z,10.50
2019-04-14T05:00:11.901Z,10.50
2019-04-14T05:02:41.871Z,10.50
2019-04-14T05:05:47.216Z,10.50
2019-04-14T05:08:17.400Z,10.40
2019-04-14T05:10:55.200Z,10.50
2019-04-14T05:13:44.615Z,10.40
2019-04-14T05:16:14.930Z,10.40
2019-04-14T05:18:44.713Z,10.40
2019-04-14T05:21:14.905Z,10.40
2019-04-14T05:23:45.352Z,10.40
2019-04-14T05:26:15.556Z,10.30
2019-04-14T05:28:46.031Z,10.30
2019-04-14T05:31:16.466Z,10.40
2019-04-14T05:33:46.872Z,10.40
2019-04-14T05:36:17.084Z,10.30
2019-04-14T05:38:47.409Z,10.30
2019-04-14T05:41:17.998Z,10.40
2019-04-14T05:43:53.765Z,10.50
2019-04-14T05:46:20.611Z,10.40
2019-04-14T05:48:51.456Z,10.40
2019-04-14T05:51:23.160Z,10.20
2019-04-14T05:53:52.803Z,10.30
2019-04-14T05:56:23.127Z,10.40
2019-04-14T05:58:53.618Z,10.40
2019-04-14T06:01:24.735Z,10.30
2019-04-14T06:03:54.552Z,10.40
2019-04-14T06:06:24.404Z,10.40
2019-04-14T06:08:54.224Z,10.10
2019-04-14T06:11:24.054Z,10.10
2019-04-14T06:13:53.926Z,10.10
2019-04-14T06:16:23.722Z,10.10
2019-04-14T06:18:53.558Z,10.00
2019-04-14T06:21:23.349Z,10.00
2019-04-14T06:23:53.298Z,9.80
2019-04-14T06:26:23.155Z,9.80
2019-04-14T06:28:53.464Z,9.80
2019-04-14T06:31:39.659Z,9.80
2019-04-14T06:34:13.821Z,9.60
2019-04-14T06:36:58.715Z,9.70
2019-04-14T06:39:30.947Z,9.70
2019-04-14T06:42:01.049Z,9.70
2019-04-14T06:44:30.818Z,9.70
2019-04-14T06:47:00.754Z,9.80
2019-04-14T06:49:30.588Z,9.90
2019-04-14T06:52:00.418Z,10.00
2019-04-14T06:54:30.193Z,10.10
2019-04-14T06:57:00.077Z,10.00
2019-04-14T06:59:29.817Z,10.10
2019-04-14T07:02:01.937Z,10.20
2019-04-14T07:04:31.154Z,10.10
2019-04-14T07:07:01.025Z,10.30
2019-04-14T07:09:30.763Z,10.40
2019-04-14T07:12:00.714Z,10.50
2019-04-14T07:14:31.987Z,10.60
2019-04-14T07:17:01.861Z,10.80
2019-04-14T07:19:31.614Z,10.70
2019-04-14T07:22:01.330Z,10.70
2019-04-14T07:24:31.153Z,10.80
2019-04-14T07:27:00.975Z,10.90
2019-04-14T07:29:37.224Z,11.00
2019-04-14T07:32:16.188Z,11.10
2019-04-14T07:35:10.647Z,11.10
2019-04-14T07:37:49.034Z,11.20
2019-04-14T07:40:43.505Z,11.30
2019-04-14T07:43:22.786Z,11.30
2019-04-14T07:46:02.127Z,11.40
2019-04-14T07:48:36.394Z,11.50
2019-04-14T07:51:29.193Z,11.60
2019-04-14T07:54:09.870Z,11.50
2019-04-14T07:57:10.851Z,11.50
2019-04-14T07:59:52.691Z,11.60
2019-04-14T08:02:27.672Z,11.60
2019-04-14T08:05:04.167Z,11.70
2019-04-14T08:07:34.123Z,11.50
2019-04-14T08:10:03.986Z,11.60
2019-04-14T08:12:35.230Z,11.60
2019-04-14T08:15:05.619Z,11.70
2019-04-14T08:17:35.581Z,11.70
2019-04-14T08:20:06.151Z,11.70
2019-04-14T08:22:35.959Z,11.80
2019-04-14T08:25:05.971Z,11.90
2019-04-14T08:27:35.788Z,11.90
2019-04-14T08:30:07.088Z,12.00
2019-04-14T08:32:36.894Z,12.00
2019-04-14T08:35:06.811Z,12.10
2019-04-14T08:37:36.679Z,12.10
2019-04-14T08:40:06.691Z,12.10
2019-04-14T08:43:02.658Z,12.20
2019-04-14T08:45:47.911Z,12.30
2019-04-14T08:48:36.610Z,12.30
2019-04-14T08:51:27.965Z,12.40
2019-04-14T08:54:11.020Z,12.40
2019-04-14T08:56:53.126Z,12.50
2019-04-14T08:59:40.787Z,12.40
2019-04-14T09:02:41.402Z,12.50
2019-04-14T09:05:48.367Z,12.60
2019-04-14T09:08:25.092Z,12.70
2019-04-14T09:10:58.089Z,12.60
2019-04-14T09:13:27.991Z,12.60
2019-04-14T09:15:57.761Z,12.70
2019-04-14T09:18:27.569Z,12.60
2019-04-14T09:20:57.346Z,12.80
2019-04-14T09:23:27.090Z,12.90
2019-04-14T09:25:56.924Z,12.80
2019-04-14T09:28:26.694Z,12.80
2019-04-14T09:30:56.490Z,12.80
2019-04-14T09:33:26.322Z,12.80
2019-04-14T09:35:56.167Z,13.00
2019-04-14T09:38:25.934Z,12.90
2019-04-14T09:40:55.802Z,12.90
2019-04-14T09:43:25.670Z,12.80
2019-04-14T09:45:55.486Z,12.80
2019-04-14T09:48:25.302Z,12.80
2019-04-14T09:51:04.197Z,12.80
2019-04-14T09:53:26.499Z,12.80
2019-04-14T09:55:56.344Z,12.70
2019-04-14T09:58:26.137Z,12.60
2019-04-14T10:00:55.924Z,12.50
2019-04-14T10:03:25.747Z,12.50
2019-04-14T10:05:58.011Z,12.70
2019-04-14T10:11:06.803Z,12.80
2019-04-14T10:13:36.574Z,12.90
2019-04-14T10:16:06.322Z,12.90
2019-04-14T10:18:36.161Z,13.00
2019-04-14T10:21:16.678Z,13.10
2019-04-14T10:23:39.500Z,13.00
2019-04-14T10:26:09.066Z,13.10
2019-04-14T10:28:38.902Z,13.20
2019-04-14T10:31:08.642Z,13.20
2019-04-14T10:33:38.373Z,13.20
2019-04-14T10:36:08.205Z,13.20
2019-04-14T10:38:38.104Z,13.20
2019-04-14T10:41:07.807Z,13.30
2019-04-14T10:43:37.665Z,13.30
2019-04-14T10:46:07.395Z,13.40
2019-04-14T10:48:37.254Z,13.40
2019-04-14T10:51:07.050Z,13.20
2019-04-14T10:53:36.879Z,13.20
2019-04-14T10:56:06.754Z,13.20
2019-04-14T10:58:36.630Z,13.30
2019-04-14T11:01:06.568Z,13.30
2019-04-14T11:03:36.854Z,13.30
2019-04-14T11:06:28.607Z,13.20
2019-04-14T11:08:58.547Z,13.20
2019-04-14T11:11:28.313Z,13.20
2019-04-14T11:13:58.256Z,13.30
2019-04-14T11:16:28.102Z,13.40
2019-04-14T11:18:57.838Z,13.30
2019-04-14T11:21:27.684Z,13.20
2019-04-14T11:23:57.446Z,13.20
2019-04-14T11:26:27.247Z,13.30
2019-04-14T11:28:57.067Z,13.20
2019-04-14T11:31:44.247Z,13.10
2019-04-14T11:34:14.955Z,13.10
2019-04-14T11:36:58.407Z,13.20
2019-04-14T11:39:28.225Z,13.20
2019-04-14T11:41:59.593Z,13.30
2019-04-14T11:44:29.985Z,13.30
2019-04-14T11:47:01.000Z,13.40
2019-04-14T11:49:31.138Z,13.40
2019-04-14T11:52:00.892Z,13.30
2019-04-14T11:54:30.945Z,13.40
2019-04-14T11:57:02.193Z,13.50
2019-04-14T11:59:50.991Z,13.50
2019-04-14T12:02:28.153Z,13.50
2019-04-14T12:05:04.396Z,13.60
2019-04-14T12:07:52.965Z,13.60
2019-04-14T12:10:28.890Z,13.50
2019-04-14T12:12:59.292Z,13.60
2019-04-14T12:15:30.720Z,13.60
2019-04-14T12:18:02.320Z,13.80
2019-04-14T12:20:35.474Z,13.70
2019-04-14T12:23:06.251Z,13.70
2019-04-14T12:25:36.095Z,13.80
2019-04-14T12:28:09.501Z,14.00
2019-04-14T12:30:39.924Z,14.10
2019-04-14T12:33:10.186Z,14.30
2019-04-14T12:35:42.892Z,14.30
2019-04-14T12:38:14.381Z,14.40
2019-04-14T12:40:44.588Z,14.10
2019-04-14T12:43:33.940Z,14.10
2019-04-14T12:46:24.706Z,14.00
2019-04-14T12:49:01.931Z,14.10
2019-04-14T12:51:41.659Z,14.20
2019-04-14T12:54:13.955Z,14.30
2019-04-14T12:56:43.931Z,14.30
2019-04-14T12:59:22.868Z,14.50
2019-04-14T13:02:13.043Z,14.60
2019-04-14T13:04:42.822Z,14.70
2019-04-14T13:07:12.661Z,14.70
2019-04-14T13:09:42.499Z,14.70
2019-04-14T13:12:12.211Z,14.60
2019-04-14T13:14:42.050Z,14.60
2019-04-14T13:17:11.791Z,14.60
2019-04-14T13:19:41.609Z,14.70
2019-04-14T13:22:11.384Z,14.70
2019-04-14T13:24:41.099Z,14.60
2019-04-14T13:27:10.913Z,14.60
2019-04-14T13:29:40.773Z,14.80
2019-04-14T13:32:10.566Z,15.00
2019-04-14T13:34:40.397Z,15.30
2019-04-14T13:37:10.274Z,15.50
2019-04-14T13:39:40.055Z,15.60
2019-04-14T13:42:09.887Z,15.50
2019-04-14T13:44:39.694Z,15.40
2019-04-14T13:47:09.451Z,15.20
2019-04-14T13:49:39.252Z,15.20
2019-04-14T13:52:09.159Z,15.30
2019-04-14T13:54:38.960Z,15.40
2019-04-14T13:57:08.849Z,15.50
2019-04-14T13:59:38.540Z,15.40
2019-04-14T14:02:08.395Z,15.50
2019-04-14T14:04:38.203Z,15.30
2019-04-14T14:07:08.263Z,15.50
2019-04-14T14:09:38.091Z,15.60
2019-04-14T14:12:25.358Z,15.60
2019-04-14T14:15:19.966Z,15.50
2019-04-14T14:18:17.732Z,15.60
2019-04-14T14:21:09.163Z,15.40
2019-04-14T14:23:56.279Z,15.40
2019-04-14T14:26:27.453Z,15.30
2019-04-14T14:28:57.315Z,15.40
2019-04-14T14:31:27.080Z,15.50
2019-04-14T14:33:56.982Z,15.40
2019-04-14T14:36:26.825Z,15.40
2019-04-14T14:38:56.673Z,15.40
2019-04-14T14:41:26.447Z,15.50
2019-04-14T14:43:56.307Z,15.50
2019-04-14T14:47:00.157Z,15.50
2019-04-14T14:49:47.603Z,15.60
2019-04-14T14:52:19.162Z,15.50
2019-04-14T14:54:48.971Z,15.50
2019-04-14T14:57:18.806Z,15.30
2019-04-14T14:59:48.587Z,15.20
2019-04-14T15:02:18.574Z,15.10
2019-04-14T15:04:48.408Z,15.00
2019-04-14T15:07:18.270Z,15.00
2019-04-14T15:09:48.212Z,15.00
2019-04-14T15:12:17.957Z,15.00
2019-04-14T15:14:47.791Z,15.10
2019-04-14T15:17:17.776Z,15.20
2019-04-14T15:19:47.685Z,15.20
2019-04-14T15:22:17.472Z,15.30
2019-04-14T15:24:47.379Z,15.30
2019-04-14T15:27:17.118Z,15.40
2019-04-14T15:29:46.925Z,15.40
2019-04-14T15:32:16.701Z,15.50
2019-04-14T15:34:46.492Z,15.50
2019-04-14T15:37:16.348Z,15.50
2019-04-14T15:39:46.166Z,15.50
2019-04-14T15:42:15.942Z,15.50
2019-04-14T15:44:45.662Z,15.50
2019-04-14T15:47:15.532Z,15.50
2019-04-14T15:49:45.358Z,15.50
2019-04-14T15:52:15.174Z,15.50
2019-04-14T15:54:44.942Z,15.60
2019-04-14T15:57:48.541Z,15.60
2019-04-14T16:00:42.875Z,15.50
2019-04-14T16:03:29.272Z,15.50
2019-04-14T16:06:16.596Z,15.40
2019-04-14T16:09:20.203Z,15.50
2019-04-14T16:12:21.191Z,15.40
2019-04-14T16:15:21.743Z,15.50
2019-04-14T16:18:19.491Z,15.50
2019-04-14T16:20:50.188Z,15.50
2019-04-14T16:23:20.070Z,15.50
2019-04-14T16:26:07.457Z,15.50
2019-04-14T16:28:42.945Z,15.50
2019-04-14T16:31:30.550Z,15.50
2019-04-14T16:34:21.654Z,15.50
2019-04-14T16:36:52.075Z,15.40
2019-04-14T16:39:21.926Z,15.30
2019-04-14T16:41:52.231Z,15.30
2019-04-14T16:44:22.075Z,15.30
2019-04-14T16:46:51.768Z,15.30
2019-04-14T16:49:21.578Z,15.30
2019-04-14T16:51:55.194Z,15.30
2019-04-14T16:54:37.101Z,15.20
2019-04-14T16:57:24.263Z,15.20
2019-04-14T16:59:54.172Z,15.20
2019-04-14T17:02:24.065Z,15.10
2019-04-14T17:04:53.874Z,15.10
2019-04-14T17:07:23.658Z,15.10
2019-04-14T17:09:53.506Z,15.00
2019-04-14T17:12:23.307Z,15.00
2019-04-14T17:15:14.846Z,14.90
2019-04-14T17:18:09.351Z,14.90
2019-04-14T17:20:58.021Z,14.80
2019-04-14T17:23:40.979Z,14.80
2019-04-14T17:26:16.757Z,14.80
2019-04-14T17:28:57.223Z,14.70
2019-04-14T17:31:49.102Z,14.60
2019-04-14T17:34:37.747Z,14.60
2019-04-14T17:37:38.505Z,14.60
2019-04-14T17:40:25.455Z,14.50
2019-04-14T17:43:03.449Z,14.40
2019-04-14T17:45:38.313Z,14.40
2019-04-14T17:48:25.436Z,14.30
2019-04-14T17:51:03.414Z,14.40
2019-04-14T17:54:01.568Z,14.30
2019-04-14T17:56:40.617Z,14.20
2019-04-14T17:59:25.722Z,14.10
2019-04-14T18:02:23.444Z,14.10
2019-04-14T18:05:20.953Z,14.10
2019-04-14T18:08:05.362Z,14.00
2019-04-14T18:10:44.208Z,14.00
2019-04-14T18:13:17.407Z,14.00
2019-04-14T18:15:59.002Z,14.00
2019-04-14T18:18:48.243Z,14.00
2019-04-14T18:21:18.516Z,14.00
2019-04-14T18:23:48.368Z,14.10
2019-04-14T18:26:18.550Z,14.00
2019-04-14T18:28:59.602Z,14.00
2019-04-14T18:31:50.040Z,13.90
2019-04-14T18:34:41.482Z,13.90
2019-04-14T18:37:28.934Z,13.90
2019-04-14T18:40:15.928Z,13.80
2019-04-14T18:43:10.408Z,13.80
2019-04-14T18:45:59.020Z,13.80
2019-04-14T18:48:35.267Z,13.80
2019-04-14T18:51:10.209Z,13.80
2019-04-14T18:53:54.214Z,13.70
2019-04-14T18:56:42.033Z,13.60
2019-04-14T18:59:35.530Z,13.50
2019-04-14T19:02:05.273Z,13.40
2019-04-14T19:04:35.103Z,13.40
2019-04-14T19:07:04.892Z,13.30
2019-04-14T19:09:35.083Z,13.20
2019-04-14T19:12:23.826Z,13.10
2019-04-14T19:14:59.879Z,13.20
2019-04-14T19:17:48.542Z,13.10
2019-04-14T19:20:19.631Z,13.10
2019-04-14T19:22:49.401Z,13.00
2019-04-14T19:25:19.273Z,12.90
2019-04-14T19:27:49.131Z,12.90
2019-04-14T19:30:19.108Z,13.00
2019-04-14T19:32:48.870Z,13.10
2019-04-14T19:35:18.727Z,13.10
2019-04-14T19:37:48.512Z,13.10
2019-04-14T19:40:18.692Z,13.10
2019-04-14T19:42:48.652Z,13.10
2019-04-14T19:45:18.547Z,13.10
2019-04-14T19:47:48.377Z,12.90
2019-04-14T19:50:18.222Z,12.90
2019-04-14T19:52:49.572Z,12.90
2019-04-14T19:55:20.499Z,12.80
2019-04-14T19:57:50.707Z,12.80
2019-04-14T20:00:20.691Z,12.80
2019-04-14T20:02:50.419Z,12.80
2019-04-14T20:05:20.280Z,12.80
2019-04-14T20:07:50.213Z,12.80
2019-04-14T20:10:20.405Z,12.90
2019-04-14T20:12:50.388Z,12.90
2019-04-14T20:15:25.961Z,12.90
2019-04-14T20:18:12.828Z,12.90
2019-04-14T20:21:01.447Z,12.90
2019-04-14T20:23:51.810Z,13.00
2019-04-14T20:26:39.104Z,13.00
2019-04-14T20:29:14.519Z,12.90
2019-04-14T20:31:53.446Z,13.00
2019-04-14T20:34:23.328Z,12.90
2019-04-14T20:36:53.170Z,12.90
2019-04-14T20:39:23.341Z,13.00
2019-04-14T20:41:53.215Z,13.00
2019-04-14T20:44:23.073Z,13.00
2019-04-14T20:46:53.145Z,13.00
2019-04-14T20:49:22.956Z,13.00
2019-04-14T20:51:53.138Z,13.00
2019-04-14T20:54:23.182Z,12.90
2019-04-14T20:56:52.963Z,13.00
2019-04-14T20:59:22.802Z,13.00
2019-04-14T21:02:11.104Z,13.10
2019-04-14T21:05:11.755Z,13.10
2019-04-14T21:08:03.039Z,13.20
2019-04-14T21:10:38.946Z,13.10
2019-04-14T21:13:22.259Z,13.10
2019-04-14T21:16:12.187Z,13.00
2019-04-14T21:18:53.316Z,13.10
2019-04-14T21:21:41.936Z,13.10
2019-04-14T21:24:36.317Z,13.10
2019-04-14T21:27:20.240Z,13.00
2019-04-14T21:30:26.869Z,13.00
2019-04-14T21:33:18.145Z,12.90
2019-04-14T21:35:55.039Z,13.00
2019-04-14T21:38:43.707Z,13.10
2019-04-14T21:41:22.195Z,12.90
2019-04-14T21:43:52.074Z,12.80
2019-04-14T21:46:21.912Z,12.90
2019-04-14T21:48:51.750Z,12.90
2019-04-14T21:51:23.335Z,12.90
2019-04-14T21:53:53.263Z,12.90
2019-04-14T21:56:24.576Z,13.00
2019-04-14T21:59:00.340Z,12.90
2019-04-14T22:02:16.436Z,12.90
2019-04-14T22:05:01.001Z,12.90
2019-04-14T22:07:56.228Z,12.90
2019-04-14T22:10:44.917Z,13.00
2019-04-14T22:13:14.802Z,12.90
2019-04-14T22:15:44.601Z,13.00
2019-04-14T22:18:14.768Z,12.90
2019-04-14T22:20:44.706Z,13.00
2019-04-14T22:23:14.508Z,13.00
2019-04-14T22:25:44.319Z,13.10
2019-04-14T22:28:14.037Z,13.10
2019-04-14T22:30:44.286Z,13.20
2019-04-14T22:33:14.071Z,13.20
2019-04-14T22:35:43.944Z,13.20
2019-04-14T22:38:13.792Z,13.10
2019-04-14T22:40:43.650Z,13.00
2019-04-14T22:43:13.486Z,13.00
2019-04-14T22:45:43.232Z,13.00
2019-04-14T22:48:13.101Z,13.10
2019-04-14T22:50:42.963Z,13.10
2019-04-14T22:53:12.737Z,13.00
2019-04-14T22:55:42.544Z,13.00
2019-04-14T22:58:12.376Z,13.00
2019-04-14T23:00:51.996Z,12.90
2019-04-14T23:06:59.152Z,12.90
2019-04-14T23:09:43.490Z,12.90
2019-04-14T23:12:35.212Z,12.90
2019-04-14T23:15:27.460Z,12.70
2019-04-14T23:18:12.104Z,12.80
2019-04-14T23:21:03.584Z,12.70
2019-04-14T23:23:49.227Z,12.70
2019-04-14T23:26:19.092Z,12.80
2019-04-14T23:28:48.961Z,12.70
2019-04-14T23:31:18.811Z,12.50
2019-04-14T23:33:48.714Z,12.30
2019-04-14T23:36:18.631Z,12.20
2019-04-14T23:38:48.488Z,12.40
2019-04-14T23:41:18.254Z,12.50
2019-04-14T23:43:48.099Z,12.30
2019-04-14T23:46:17.850Z,12.10
2019-04-14T23:48:47.772Z,11.90
2019-04-14T23:51:17.608Z,12.10
2019-04-14T23:53:47.377Z,12.20
2019-04-14T23:56:17.345Z,12.20
2019-04-14T23:58:47.142Z,12.30
